createdAt,value
2022-09-11T15:54:54.715Z,67.11
2022-09-11T15:57:21.309Z,68.14
2022-09-11T15:59:48.030Z,69.39
2022-09-11T16:02:14.976Z,69.92
2022-09-11T16:04:41.676Z,70.72
2022-09-11T16:07:08.360Z,70.82
2022-09-11T16:09:35.711Z,71.45
2022-09-11T16:12:02.924Z,71.61
2022-09-11T16:14:33.099Z,72.44
2022-09-11T16:17:01.782Z,72.42
2022-09-11T16:19:29.203Z,72.48
2022-09-11T16:21:57.440Z,72.67
2022-09-11T16:24:26.313Z,73.30
2022-09-11T16:26:56.979Z,73.72
2022-09-11T16:29:25.847Z,73.97
2022-09-11T16:31:53.487Z,74.56
2022-09-11T16:34:20.101Z,74.30
2022-09-11T16:36:46.816Z,74.58
2022-09-11T16:39:16.368Z,74.56
2022-09-11T16:41:43.493Z,74.90
2022-09-11T16:44:13.039Z,74.87
2022-09-11T16:46:40.967Z,75.02
2022-09-11T16:49:07.632Z,75.39
2022-09-11T16:51:34.434Z,75.64
2022-09-11T16:54:01.476Z,76.33
2022-09-11T16:56:28.105Z,76.05
2022-09-11T16:58:54.775Z,76.80
2022-09-11T17:01:24.854Z,76.58
2022-09-11T17:03:53.336Z,76.49
2022-09-11T17:06:21.548Z,77.26
2022-09-11T17:08:50.969Z,77.35
2022-09-11T17:11:20.072Z,77.16
2022-09-11T17:13:47.165Z,77.67
2022-09-11T17:16:19.469Z,77.17
2022-09-11T17:18:50.150Z,77.53
2022-09-11T17:21:17.418Z,77.29
2022-09-11T17:23:45.821Z,77.89
2022-09-11T17:26:18.948Z,77.40
2022-09-11T17:28:49.605Z,77.59
2022-09-11T17:31:19.221Z,77.62
2022-09-11T17:33:47.359Z,78.15
2022-09-11T17:36:18.611Z,78.40
2022-09-11T17:38:48.368Z,78.01
2022-09-11T17:41:15.740Z,78.58
2022-09-11T17:43:42.745Z,78.29
2022-09-11T17:46:15.228Z,78.61
2022-09-11T17:48:42.605Z,79.07
2022-09-11T17:51:11.952Z,78.71
2022-09-11T17:53:44.130Z,78.96
2022-09-11T17:56:14.439Z,78.65
2022-09-11T17:58:42.652Z,79.16
2022-09-11T18:01:12.568Z,79.18
2022-09-11T18:03:45.303Z,78.99
2022-09-11T18:06:19.543Z,78.69
2022-09-11T18:08:46.908Z,79.07
2022-09-11T18:11:13.652Z,79.47
2022-09-11T18:13:42.171Z,79.48
2022-09-11T18:16:11.457Z,79.42
2022-09-11T18:18:39.485Z,79.89
2022-09-11T18:21:09.025Z,79.71
2022-09-11T18:23:45.029Z,80.06
2022-09-11T18:26:27.053Z,80.18
2022-09-11T18:29:03.746Z,80.02
2022-09-11T18:31:32.746Z,80.19
2022-09-11T18:34:01.014Z,80.68
2022-09-11T18:36:29.693Z,80.98
2022-09-11T18:39:04.046Z,80.45
2022-09-11T18:41:35.005Z,80.71
2022-09-11T18:44:04.322Z,80.85
2022-09-11T18:46:34.303Z,81.04
2022-09-11T18:49:01.713Z,80.75
2022-09-11T18:51:28.342Z,81.13
2022-09-11T18:53:55.993Z,81.05
2022-09-11T18:56:28.679Z,81.22
2022-09-11T18:58:56.096Z,81.46
2022-09-11T19:01:26.503Z,81.58
2022-09-11T19:03:56.010Z,81.14
2022-09-11T19:06:25.271Z,81.56
2022-09-11T19:08:53.900Z,81.67
2022-09-11T19:11:25.533Z,81.50
2022-09-11T19:13:54.588Z,81.43
2022-09-11T19:16:22.145Z,81.73
2022-09-11T19:18:49.317Z,81.61
2022-09-11T19:21:18.433Z,81.80
2022-09-11T19:23:47.346Z,81.92
2022-09-11T19:26:21.995Z,81.60
2022-09-11T19:28:50.386Z,81.89
2022-09-11T19:31:24.973Z,81.86
2022-09-11T19:33:53.119Z,81.85
2022-09-11T19:36:23.809Z,82.29
2022-09-11T19:38:52.966Z,82.42
2022-09-11T19:41:23.149Z,82.30
2022-09-11T19:43:50.934Z,82.26
2022-09-11T19:46:20.147Z,81.89
2022-09-11T19:48:48.476Z,82.31
2022-09-11T19:51:23.148Z,82.60
2022-09-11T19:53:52.197Z,82.17
2022-09-11T19:56:19.526Z,82.46
2022-09-11T19:58:47.864Z,82.51
2022-09-11T20:01:17.164Z,82.47
2022-09-11T20:03:45.943Z,82.56
2022-09-11T20:06:15.261Z,82.79
2022-09-11T20:08:44.241Z,82.62
2022-09-11T20:11:14.421Z,83.08
2022-09-11T20:13:41.818Z,83.02
2022-09-11T20:16:12.004Z,83.21
2022-09-11T20:18:38.749Z,83.21
2022-09-11T20:21:14.202Z,83.30
2022-09-11T20:23:40.891Z,83.50
2022-09-11T20:26:17.183Z,83.34
2022-09-11T20:28:46.153Z,83.37
2022-09-11T20:31:13.808Z,82.85
2022-09-11T20:33:40.936Z,82.96
2022-09-11T20:36:08.940Z,82.99
2022-09-11T20:38:35.688Z,82.89
2022-09-11T20:41:14.123Z,82.67
2022-09-11T20:43:41.689Z,82.52
2022-09-11T20:46:09.202Z,82.21
2022-09-11T20:48:37.947Z,82.00
2022-09-11T20:51:07.706Z,82.30
2022-09-11T20:53:36.113Z,81.99
2022-09-11T20:56:05.156Z,82.36
2022-09-11T20:58:31.788Z,82.16
2022-09-11T21:01:00.570Z,81.72
2022-09-11T21:03:29.196Z,82.01
2022-09-11T21:05:56.440Z,82.00
2022-09-11T21:08:25.547Z,81.95
2022-09-11T21:10:53.750Z,82.26
2022-09-11T21:13:20.346Z,82.13
2022-09-11T21:15:48.438Z,82.26
2022-09-11T21:18:16.326Z,81.80
2022-09-11T21:20:43.012Z,81.74
2022-09-11T21:23:09.598Z,82.37
2022-09-11T21:25:40.315Z,82.33
2022-09-11T21:28:06.949Z,82.15
2022-09-11T21:30:33.788Z,81.93
2022-09-11T21:33:02.770Z,82.02
2022-09-11T21:35:29.362Z,81.87
2022-09-11T21:37:55.991Z,82.07
2022-09-11T21:40:22.719Z,82.17
2022-09-11T21:42:49.268Z,81.85
2022-09-11T21:45:15.895Z,82.49
2022-09-11T21:47:43.347Z,81.89
2022-09-11T21:50:10.422Z,82.12
2022-09-11T21:52:38.234Z,82.04
2022-09-11T21:55:05.266Z,82.00
2022-09-11T21:57:31.827Z,82.39
2022-09-11T21:59:58.807Z,81.41
2022-09-11T22:02:27.316Z,81.60
2022-09-11T22:04:54.308Z,81.47
2022-09-11T22:07:21.924Z,81.08
2022-09-11T22:09:50.313Z,81.04
2022-09-11T22:12:17.048Z,81.56
2022-09-11T22:14:46.794Z,81.50
2022-09-11T22:17:14.356Z,81.30
2022-09-11T22:19:44.431Z,81.89
2022-09-11T22:22:10.989Z,81.47
2022-09-11T22:24:39.552Z,81.66
2022-09-11T22:27:09.244Z,81.34
2022-09-11T22:29:37.058Z,80.80
2022-09-11T22:32:05.296Z,81.11
2022-09-11T22:34:33.975Z,80.58
2022-09-11T22:37:00.722Z,80.09
2022-09-11T22:39:28.140Z,79.92
2022-09-11T22:41:55.116Z,79.59
2022-09-11T22:44:21.665Z,79.83
2022-09-11T22:46:48.919Z,79.27
2022-09-11T22:49:15.753Z,79.26
2022-09-11T22:51:42.390Z,80.07
2022-09-11T22:54:08.974Z,79.70
2022-09-11T22:56:35.547Z,79.79
2022-09-11T22:59:02.109Z,79.78
2022-09-11T23:01:28.784Z,79.30
2022-09-11T23:03:55.438Z,79.71
2022-09-11T23:06:41.422Z,79.55
2022-09-11T23:09:11.084Z,79.56
2022-09-11T23:11:37.744Z,79.62
2022-09-11T23:14:04.411Z,79.22
2022-09-11T23:16:31.561Z,78.85
2022-09-11T23:19:01.292Z,78.59
2022-09-11T23:21:31.672Z,78.63
2022-09-11T23:23:59.455Z,78.33
2022-09-11T23:26:28.764Z,78.34
2022-09-11T23:28:56.397Z,78.72
2022-09-11T23:31:32.031Z,78.81
2022-09-11T23:34:01.492Z,78.65
2022-09-11T23:36:31.802Z,78.24
2022-09-11T23:38:59.168Z,78.25
2022-09-11T23:41:26.293Z,78.66
2022-09-11T23:43:53.696Z,78.27
2022-09-11T23:46:20.639Z,78.52
2022-09-11T23:48:48.431Z,78.30
2022-09-11T23:51:15.702Z,78.46
2022-09-11T23:53:45.162Z,78.60
2022-09-11T23:56:14.508Z,78.70
2022-09-11T23:58:42.265Z,78.64
